Time;durP1;ratioP1;P1;durP2;ratioP2;P2;SDS_P1;SDS_P2;PMS_P1;PMS_P2;Temp;Humidity;BMP_temperature;BMP_pressure;BME280_temperature;BME280_humidity;BME280_pressure;Samples;Min_cycle;Max_cycle;Signal;HPM_P1;HPM_P2
2022/03/03 00:00:13;;;;;;;;;74.50;62.50;;;;;11.77;46.64;101289.81;5059259;28;45304;-45
2022/03/03 00:02:39;;;;;;;;;74.00;57.00;;;;;11.75;46.64;101286.31;5060455;28;45311;-48
2022/03/03 00:05:04;;;;;;;;;72.50;57.50;;;;;11.70;46.73;101281.13;5060385;28;46137;-45
2022/03/03 00:07:29;;;;;;;;;73.00;56.25;;;;;11.70;46.66;101283.75;5060256;28;45235;-46
2022/03/03 00:09:55;;;;;;;;;71.75;56.75;;;;;11.68;46.90;101277.63;5060310;28;45853;-45
2022/03/03 00:12:20;;;;;;;;;73.00;57.00;;;;;11.66;46.63;101277.66;5060161;28;45156;-46
2022/03/03 00:14:46;;;;;;;;;80.00;58.33;;;;;11.65;46.79;101275.91;5059061;28;47240;-45
2022/03/03 00:17:12;;;;;;;;;73.33;58.33;;;;;11.60;47.03;101269.81;5060399;28;45550;-45
2022/03/03 00:19:37;;;;;;;;;73.00;56.25;;;;;11.60;46.82;101271.59;5060320;28;45316;-47
2022/03/03 00:22:03;;;;;;;;;75.33;60.33;;;;;11.59;46.94;101268.06;5060162;28;45432;-46
2022/03/03 00:24:28;;;;;;;;;77.25;58.75;;;;;11.58;46.88;101268.94;5059895;28;47379;-46
2022/03/03 00:26:54;;;;;;;;;77.00;62.00;;;;;11.55;46.96;101259.31;5060033;28;45247;-49
2022/03/03 00:29:19;;;;;;;;;73.00;55.50;;;;;11.54;47.23;101261.97;5058811;28;45662;-48
2022/03/03 00:31:44;;;;;;;;;77.50;58.50;;;;;11.54;47.00;101273.38;5059932;28;45265;-48
2022/03/03 00:34:10;;;;;;;;;77.50;62.25;;;;;11.52;46.88;101266.38;5059794;28;45383;-45
2022/03/03 00:36:35;;;;;;;;;71.67;57.67;;;;;11.51;47.20;101267.28;5064159;28;45359;-48
2022/03/03 00:39:03;;;;;;;;;73.75;59.75;;;;;11.51;47.19;101269.91;5059797;28;45472;-47
2022/03/03 00:41:28;;;;;;;;;74.50;61.00;;;;;11.50;47.01;101273.44;5058657;28;45293;-45
2022/03/03 00:43:53;;;;;;;;;74.25;56.75;;;;;11.49;47.20;101272.53;5059766;28;46134;-46
2022/03/03 00:46:19;;;;;;;;;76.67;58.67;;;;;11.49;47.11;101264.66;5059892;28;45332;-45
2022/03/03 00:48:44;;;;;;;;;73.25;59.25;;;;;11.49;47.14;101258.53;5059961;28;45540;-47
2022/03/03 00:51:09;;;;;;;;;78.00;63.00;;;;;11.50;47.28;101268.16;5059755;28;45237;-48
2022/03/03 00:53:36;;;;;;;;;75.75;60.75;;;;;11.51;47.21;101264.66;5057499;28;46799;-47
2022/03/03 00:56:02;;;;;;;;;74.00;60.75;;;;;11.51;47.34;101268.13;5059366;28;45351;-45
2022/03/03 00:58:28;;;;;;;;;74.67;57.67;;;;;11.52;47.26;101261.09;5060000;28;45433;-47
2022/03/03 01:00:53;;;;;;;;;75.00;60.00;;;;;11.52;47.34;101269.91;5059638;28;45498;-49
2022/03/03 01:03:18;;;;;;;;;74.50;59.75;;;;;11.51;47.08;101268.13;5059841;28;46262;-50
2022/03/03 01:05:44;;;;;;;;;74.67;60.00;;;;;11.51;47.23;101276.03;5059575;28;45253;-45
2022/03/03 01:08:10;;;;;;;;;73.25;56.25;;;;;11.49;47.24;101277.81;5058175;28;45467;-47
2022/03/03 01:10:37;;;;;;;;;69.75;55.50;;;;;11.51;47.36;101280.44;5057674;28;45308;-46
2022/03/03 01:13:02;;;;;;;;;77.25;60.00;;;;;11.50;47.54;101273.44;5058232;28;47082;-48
2022/03/03 01:15:28;;;;;;;;;71.67;56.33;;;;;11.48;47.35;101278.72;5059420;28;45427;-47
2022/03/03 01:17:53;;;;;;;;;72.50;57.50;;;;;11.48;47.13;101280.44;5058320;28;45251;-46
2022/03/03 01:20:18;;;;;;;;;72.00;56.00;;;;;11.46;47.53;101280.47;5059430;28;45441;-49
2022/03/03 01:22:44;;;;;;;;;76.50;59.25;;;;;11.45;47.75;101278.72;5059464;28;45413;-45
2022/03/03 01:25:09;;;;;;;;;76.67;63.00;;;;;11.45;47.59;101275.22;5059014;28;45250;-48
2022/03/03 01:27:35;;;;;;;;;73.67;58.33;;;;;11.42;47.68;101267.34;5059691;28;45443;-49
2022/03/03 01:30:01;;;;;;;;;74.00;57.33;;;;;11.42;47.57;101272.63;5059212;28;45222;-49
2022/03/03 01:32:27;;;;;;;;;75.00;61.00;;;;;11.41;47.62;101274.38;5059165;28;46208;-46
2022/03/03 01:34:52;;;;;;;;;78.67;64.67;;;;;11.40;47.63;101266.50;5062891;28;45326;-46
2022/03/03 01:37:17;;;;;;;;;79.67;67.00;;;;;11.37;47.71;101263.00;5058043;28;45269;-45
2022/03/03 01:39:43;;;;;;;;;73.33;56.00;;;;;11.37;47.78;101268.28;5058710;28;45441;-48
2022/03/03 01:42:08;;;;;;;;;78.00;62.00;;;;;11.37;47.74;101263.00;5057820;28;47191;-47
2022/03/03 01:44:34;;;;;;;;;77.25;62.00;;;;;11.37;47.71;101262.13;5059114;28;45271;-45
2022/03/03 01:47:00;;;;;;;;;73.50;56.75;;;;;11.37;47.71;101262.13;5059371;28;45315;-47
2022/03/03 01:49:26;;;;;;;;;77.00;61.25;;;;;11.37;48.02;101259.50;5058935;28;45538;-49
2022/03/03 01:51:52;;;;;;;;;71.25;55.25;;;;;11.37;47.77;101255.13;5057803;28;48497;-47
2022/03/03 01:54:18;;;;;;;;;74.00;59.50;;;;;11.37;47.78;101251.59;5058854;28;45266;-45
2022/03/03 01:56:45;;;;;;;;;74.67;56.67;;;;;11.37;47.86;101254.22;5059233;28;45304;-49
2022/03/03 01:59:11;;;;;;;;;77.00;62.67;;;;;11.38;47.87;101253.34;5058928;28;45328;-48
2022/03/03 02:01:37;;;;;;;;;76.25;60.00;;;;;11.38;48.07;101253.34;5057635;28;47123;-48
2022/03/03 02:04:07;;;;;;;;;71.00;55.25;;;;;11.39;48.08;101252.47;5059062;28;45328;-46
2022/03/03 02:06:33;;;;;;;;;72.50;56.50;;;;;11.36;47.88;101242.84;5062174;28;45335;-47
2022/03/03 02:08:59;;;;;;;;;75.75;61.00;;;;;11.36;47.96;101241.97;5061649;28;45520;-46
2022/03/03 02:11:25;;;;;;;;;74.50;58.75;;;;;11.38;47.84;101248.97;5062048;28;45488;-47
2022/03/03 02:13:51;;;;;;;;;75.25;56.25;;;;;11.41;48.02;101248.06;5060788;28;45854;-49
2022/03/03 02:16:16;;;;;;;;;74.00;56.50;;;;;11.43;48.09;101259.44;5062261;28;45349;-49
2022/03/03 02:18:43;;;;;;;;;77.50;62.50;;;;;11.42;48.06;101247.19;5062069;28;45570;-48
2022/03/03 02:21:13;;;;;;;;;73.50;58.50;;;;;11.43;48.28;101248.91;5062095;28;45388;-47
2022/03/03 02:23:40;;;;;;;;;66.50;54.50;;;;;11.44;48.07;101244.53;5060654;28;45201;-47
2022/03/03 02:26:11;;;;;;;;;71.50;57.00;;;;;11.44;48.11;101239.28;5062021;28;45310;-45
2022/03/03 02:28:37;;;;;;;;;68.00;54.00;;;;;11.45;48.22;101235.75;5061951;28;45389;-47
2022/03/03 02:31:03;;;;;;;;;72.75;56.00;;;;;11.46;48.14;101234.84;5061755;28;47261;-46
2022/03/03 02:33:28;;;;;;;;;71.25;56.75;;;;;11.46;48.37;101238.38;5061837;28;45292;-48
2022/03/03 02:35:53;;;;;;;;;73.00;56.25;;;;;11.48;48.21;101238.34;5065726;28;45284;-48
2022/03/03 02:38:19;;;;;;;;;69.25;55.00;;;;;11.48;48.25;101246.25;5061739;28;45221;-47
2022/03/03 02:40:44;;;;;;;;;72.50;55.75;;;;;11.48;48.20;101233.97;5061387;28;45473;-49
2022/03/03 02:43:09;;;;;;;;;72.00;56.25;;;;;11.49;48.19;101230.44;5061765;28;45275;-46
2022/03/03 02:45:35;;;;;;;;;73.75;60.25;;;;;11.47;48.16;101226.06;5061869;28;45224;-50
2022/03/03 02:48:00;;;;;;;;;70.75;56.00;;;;;11.49;48.13;101221.69;5060486;28;45327;-49
2022/03/03 02:50:26;;;;;;;;;75.75;60.00;;;;;11.50;48.16;101223.44;5061504;28;46290;-46
2022/03/03 02:52:52;;;;;;;;;71.00;56.50;;;;;11.51;48.23;101225.19;5061401;28;45389;-49
2022/03/03 02:55:18;;;;;;;;;72.75;56.50;;;;;11.53;48.44;101219.00;5043310;28;45279;-45
2022/03/03 02:57:58;;;;;;;;;76.25;59.00;;;;;11.52;48.33;101216.38;5061464;28;45336;-48
2022/03/03 03:00:27;;;;;;;;;73.50;55.25;;;;;11.54;48.48;101212.81;5061512;28;47234;-48
2022/03/03 03:02:52;;;;;;;;;71.50;56.25;;;;;11.54;48.39;101204.06;5059974;28;45304;-47
2022/03/03 03:05:18;;;;;;;;;69.00;54.75;;;;;11.55;48.48;101201.41;5061541;28;45312;-48
2022/03/03 03:07:44;;;;;;;;;67.75;53.50;;;;;11.57;48.63;101203.16;5061167;28;45227;-50
2022/03/03 03:10:10;;;;;;;;;67.00;53.75;;;;;11.59;48.64;101209.28;5060726;28;45750;-47
2022/03/03 03:12:35;;;;;;;;;66.75;52.00;;;;;11.59;48.55;101201.41;5061256;28;45217;-49
2022/03/03 03:15:00;;;;;;;;;68.00;52.50;;;;;11.60;48.73;101195.25;5061434;28;45501;-47
2022/03/03 03:17:26;;;;;;;;;68.25;54.00;;;;;11.61;48.57;101189.97;5060040;28;45578;-46
2022/03/03 03:19:51;;;;;;;;;63.50;51.50;;;;;11.64;48.80;101189.06;5061113;28;45380;-49
2022/03/03 03:22:17;;;;;;;;;67.00;53.75;;;;;11.66;48.73;101192.53;5061043;28;45300;-47
2022/03/03 03:24:42;;;;;;;;;64.25;51.00;;;;;11.66;48.83;101188.16;5059657;28;45253;-47
2022/03/03 03:27:08;;;;;;;;;65.50;51.00;;;;;11.70;48.86;101181.09;5059762;28;45507;-49
2022/03/03 03:29:33;;;;;;;;;70.00;53.50;;;;;11.69;48.79;101182.81;5061033;28;45376;-46
2022/03/03 03:31:59;;;;;;;;;65.00;50.75;;;;;11.73;48.98;101178.41;5060737;28;45209;-46
2022/03/03 03:34:24;;;;;;;;;63.25;49.50;;;;;11.74;48.80;101174.03;5062666;28;45269;-47
2022/03/03 03:36:49;;;;;;;;;68.00;50.00;;;;;11.70;48.85;101160.88;5061723;28;45252;-46
2022/03/03 03:39:15;;;;;;;;;60.50;48.75;;;;;11.77;49.08;101169.56;5060751;28;45261;-49
2022/03/03 03:41:43;;;;;;;;;63.50;51.50;;;;;11.79;48.87;101167.78;5059263;28;45308;-46
2022/03/03 03:44:08;;;;;;;;;63.25;49.75;;;;;11.80;49.00;101164.28;5060947;28;45384;-47
2022/03/03 03:46:33;;;;;;;;;62.75;49.50;;;;;11.81;49.05;101168.66;5076168;27;45532;-46
2022/03/03 03:48:59;;;;;;;;;63.75;51.00;;;;;11.82;49.17;101170.41;5060854;28;45294;-47
2022/03/03 03:51:24;;;;;;;;;55.00;44.00;;;;;11.82;49.31;101167.78;5060600;28;45249;-49
2022/03/03 03:53:49;;;;;;;;;65.25;50.50;;;;;11.85;49.19;101161.59;5060588;28;45404;-47
2022/03/03 03:56:15;;;;;;;;;58.75;48.00;;;;;11.85;49.35;101166.88;5060491;28;45346;-47
2022/03/03 03:58:40;;;;;;;;;64.25;48.75;;;;;11.84;49.49;101162.47;5060624;28;46087;-49
2022/03/03 04:01:05;;;;;;;;;61.75;48.00;;;;;11.87;49.23;101159.78;5060406;28;45311;-48
2022/03/03 04:03:31;;;;;;;;;63.00;50.50;;;;;11.86;49.27;101158.94;5060801;28;45255;-45
2022/03/03 04:05:56;;;;;;;;;58.50;47.50;;;;;11.87;49.37;101157.16;5060334;28;45337;-45
2022/03/03 04:08:21;;;;;;;;;60.50;47.75;;;;;11.85;49.44;101151.06;5060334;28;45457;-46
2022/03/03 04:10:47;;;;;;;;;59.75;48.25;;;;;11.86;49.69;101155.41;5059726;28;45261;-48
2022/03/03 04:13:15;;;;;;;;;59.75;48.50;;;;;11.87;49.67;101151.91;5060528;28;45315;-46
2022/03/03 04:15:40;;;;;;;;;60.25;48.00;;;;;11.87;49.53;101149.25;5058866;28;45272;-49
2022/03/03 04:18:06;;;;;;;;;60.50;47.25;;;;;11.90;49.61;101148.34;5060301;28;45281;-47
2022/03/03 04:20:31;;;;;;;;;56.00;46.00;;;;;11.87;49.78;101134.34;5060026;28;45232;-47
2022/03/03 04:22:57;;;;;;;;;63.50;49.75;;;;;11.90;49.61;101146.59;5060336;28;45470;-46
2022/03/03 04:25:22;;;;;;;;;63.25;49.50;;;;;11.91;49.88;101136.94;5059643;28;45345;-48
2022/03/03 04:27:48;;;;;;;;;62.00;48.25;;;;;11.91;49.84;101129.03;5059869;28;45981;-49
2022/03/03 04:30:13;;;;;;;;;61.00;48.25;;;;;11.92;49.72;101133.41;5058642;28;45265;-45
2022/03/03 04:32:39;;;;;;;;;59.75;45.00;;;;;11.93;49.83;101128.13;5060299;28;45312;-44
2022/03/03 04:35:06;;;;;;;;;60.75;48.25;;;;;11.95;49.85;101123.72;5063334;28;45422;-47
2022/03/03 04:37:31;;;;;;;;;63.00;49.50;;;;;11.95;49.82;101126.34;5059851;28;46956;-49
2022/03/03 04:39:57;;;;;;;;;62.50;50.00;;;;;11.97;49.97;101126.34;5059383;28;45271;-49
2022/03/03 04:42:23;;;;;;;;;62.25;50.00;;;;;11.97;49.92;101121.94;5058854;28;45384;-47
2022/03/03 04:44:48;;;;;;;;;59.50;48.00;;;;;11.97;49.92;101118.44;5059959;28;45386;-47
2022/03/03 04:47:14;;;;;;;;;62.75;50.25;;;;;11.97;49.96;101111.41;5059812;28;45291;-49
2022/03/03 04:49:39;;;;;;;;;61.75;49.25;;;;;11.97;49.95;101121.94;5059668;28;45289;-47
2022/03/03 04:52:05;;;;;;;;;61.50;48.75;;;;;12.00;49.88;101116.63;5041831;28;45250;-48
2022/03/03 04:54:30;;;;;;;;;59.75;48.25;;;;;11.98;50.14;101104.38;5058287;28;45440;-47
2022/03/03 04:56:55;;;;;;;;;62.00;48.50;;;;;11.99;49.92;101107.00;5059778;28;46227;-46
2022/03/03 04:59:23;;;;;;;;;56.75;46.00;;;;;12.01;50.00;101112.22;5059521;28;45297;-50
2022/03/03 05:01:49;;;;;;;;;60.00;46.50;;;;;12.00;50.08;101103.47;5059963;28;45322;-47
2022/03/03 05:04:14;;;;;;;;;58.00;46.25;;;;;12.00;49.98;101106.09;5059622;28;45320;-46
2022/03/03 05:06:40;;;;;;;;;58.00;47.00;;;;;12.03;50.10;101110.47;5058244;28;46996;-46
2022/03/03 05:09:05;;;;;;;;;52.00;42.75;;;;;12.02;50.08;101104.34;5058917;28;45366;-49
2022/03/03 05:11:30;;;;;;;;;58.25;44.75;;;;;12.04;50.10;101104.31;5058241;28;45327;-45
2022/03/03 05:13:56;;;;;;;;;54.50;43.75;;;;;12.05;50.17;101113.06;5059463;28;45315;-46
2022/03/03 05:16:21;;;;;;;;;54.00;43.25;;;;;12.02;50.47;101104.34;5059660;28;45292;-48
2022/03/03 05:18:46;;;;;;;;;54.75;44.50;;;;;12.03;50.35;101105.19;5058155;28;45445;-46
2022/03/03 05:21:12;;;;;;;;;50.00;40.00;;;;;12.06;50.23;101099.00;5059706;28;45215;-45
2022/03/03 05:23:37;;;;;;;;;58.00;46.25;;;;;12.06;50.54;101096.38;5057910;28;45537;-47
2022/03/03 05:26:03;;;;;;;;;62.75;48.25;;;;;12.07;50.46;101103.38;5057984;28;46056;-46
2022/03/03 05:28:28;;;;;;;;;60.00;47.25;;;;;12.06;50.43;101093.75;5059302;28;45473;-44
2022/03/03 05:30:54;;;;;;;;;61.75;49.00;;;;;12.08;50.57;101099.88;5059510;28;45418;-52
2022/03/03 05:33:20;;;;;;;;;53.75;44.75;;;;;12.08;50.62;101098.09;5057915;28;45289;-47
2022/03/03 05:35:47;;;;;;;;;58.25;46.00;;;;;12.10;50.57;101098.06;5064311;28;46371;-46
2022/03/03 05:38:13;;;;;;;;;54.50;42.50;;;;;12.03;50.62;101090.25;5059051;28;45419;-48
2022/03/03 05:40:38;;;;;;;;;50.25;41.75;;;;;12.12;50.41;101096.28;5060586;28;45402;-47
2022/03/03 05:43:04;;;;;;;;;55.25;45.00;;;;;12.12;50.65;101096.28;5062631;28;45343;-47
2022/03/03 05:45:32;;;;;;;;;52.75;44.50;;;;;12.11;50.71;101089.28;5062755;28;46026;-49
2022/03/03 05:47:58;;;;;;;;;50.00;40.75;;;;;12.12;50.85;101097.13;5062566;28;45197;-47
2022/03/03 05:50:23;;;;;;;;;54.75;44.00;;;;;12.12;50.52;101106.81;5061329;28;45495;-46
2022/03/03 05:52:49;;;;;;;;;54.25;43.75;;;;;12.11;50.80;101103.31;5062529;28;45304;-48
2022/03/03 05:55:14;;;;;;;;;57.50;44.00;;;;;12.12;50.75;101106.81;5062306;28;46099;-45
2022/03/03 05:57:44;;;;;;;;;53.00;43.75;;;;;12.12;50.75;101099.78;5062413;28;45242;-47
2022/03/03 06:00:12;;;;;;;;;54.00;44.25;;;;;12.13;50.92;101105.94;5062753;28;45306;-45
2022/03/03 06:02:50;;;;;;;;;55.75;44.75;;;;;12.11;50.80;101105.97;5062306;28;45240;-47
2022/03/03 06:05:23;;;;;;;;;57.75;46.50;;;;;12.13;50.91;101116.47;5061209;28;45285;-48
2022/03/03 06:07:52;;;;;;;;;59.00;47.25;;;;;12.13;50.67;101111.19;5062143;28;45165;-45
2022/03/03 06:10:23;;;;;;;;;55.50;43.75;;;;;12.12;50.90;101105.03;5060834;28;45331;-48
2022/03/03 06:12:51;;;;;;;;;56.50;45.25;;;;;12.11;50.95;101108.59;5062187;28;45213;-54
2022/03/03 06:15:19;;;;;;;;;55.00;45.25;;;;;12.13;50.90;101108.56;5062081;28;45358;-51
2022/03/03 06:17:45;;;;;;;;;54.00;44.00;;;;;12.09;51.04;101101.59;5062169;28;45407;-53
2022/03/03 06:20:12;;;;;;;;;56.25;45.25;;;;;12.12;51.08;101106.81;5060865;28;45379;-53
2022/03/03 06:22:37;;;;;;;;;54.00;44.75;;;;;12.12;51.19;101110.31;5077796;28;45197;-49
2022/03/03 06:25:05;;;;;;;;;55.00;43.75;;;;;12.13;51.12;101114.69;5061529;28;45196;-52
2022/03/03 06:27:31;;;;;;;;;51.50;44.25;;;;;12.13;51.03;101117.31;5062164;28;45339;-53
2022/03/03 06:29:57;;;;;;;;;58.50;46.25;;;;;12.15;51.12;101112.03;5061962;28;45300;-50
2022/03/03 06:32:23;;;;;;;;;58.75;45.25;;;;;12.14;51.15;101111.16;5061894;28;45327;-52
2022/03/03 06:34:48;;;;;;;;;51.00;42.25;;;;;12.14;51.26;101110.31;5064826;28;46177;-49
2022/03/03 06:37:13;;;;;;;;;55.25;45.50;;;;;12.15;51.37;101118.19;5061952;28;45340;-52
2022/03/03 06:39:39;;;;;;;;;55.00;41.75;;;;;12.16;51.26;101116.41;5060109;28;45272;-50
2022/03/03 06:42:05;;;;;;;;;58.50;44.75;;;;;12.17;51.31;101120.78;5061944;28;45347;-52
2022/03/03 06:44:30;;;;;;;;;52.25;43.25;;;;;12.18;51.39;101117.28;5060317;28;47579;-52
2022/03/03 06:46:56;;;;;;;;;57.25;46.00;;;;;12.19;51.38;101113.75;5061653;28;45399;-51
2022/03/03 06:49:25;;;;;;;;;54.50;43.75;;;;;12.20;51.23;101123.41;5060370;28;45398;-51
2022/03/03 06:51:55;;;;;;;;;55.50;45.75;;;;;12.22;51.31;101126.00;5060490;28;45644;-54
2022/03/03 06:54:22;;;;;;;;;60.50;47.50;;;;;12.22;51.23;101124.22;5061102;28;46230;-54
2022/03/03 06:56:51;;;;;;;;;52.50;44.00;;;;;12.22;51.33;101132.13;5061565;28;45268;-52
2022/03/03 06:59:21;;;;;;;;;55.50;45.00;;;;;12.24;51.20;101125.09;5060285;28;45299;-52
2022/03/03 07:01:49;;;;;;;;;52.25;42.00;;;;;12.26;51.29;101138.22;5060365;28;45274;-53
2022/03/03 07:04:15;;;;;;;;;55.50;44.75;;;;;12.26;51.35;101128.53;5061473;28;46972;-52
2022/03/03 07:06:43;;;;;;;;;58.00;47.00;;;;;12.26;51.43;101131.19;5061433;28;45385;-51
2022/03/03 07:09:09;;;;;;;;;57.75;44.75;;;;;12.29;51.42;101131.16;5060905;28;45634;-52
2022/03/03 07:11:37;;;;;;;;;63.00;47.50;;;;;12.29;51.49;101125.88;5060965;28;45529;-49
2022/03/03 07:14:03;;;;;;;;;54.50;43.50;;;;;12.30;51.40;101127.63;5061101;28;46100;-51
2022/03/03 07:17:01;;;;;;;;;57.00;45.75;;;;;12.32;51.49;101124.97;5061262;28;45249;-52
2022/03/03 07:19:26;;;;;;;;;61.50;46.00;;;;;12.33;51.49;101132.84;5061293;28;45224;-52
2022/03/03 07:21:51;;;;;;;;;60.50;45.75;;;;;12.34;51.42;101134.59;5061123;28;45174;-52
2022/03/03 07:24:33;;;;;;;;;57.75;46.50;;;;;12.35;51.48;101128.44;5060881;28;46258;-48
2022/03/03 07:27:07;;;;;;;;;55.50;45.50;;;;;12.37;51.47;101124.91;5061007;28;45278;-50
2022/03/03 07:29:34;;;;;;;;;58.50;47.50;;;;;12.39;51.66;101129.25;5059735;28;45170;-51
2022/03/03 07:32:05;;;;;;;;;55.00;44.00;;;;;12.40;51.67;101130.13;5060753;28;45323;-52
2022/03/03 07:34:34;;;;;;;;;54.75;44.50;;;;;12.40;51.74;101131.00;5062078;28;47423;-52
2022/03/03 07:37:10;;;;;;;;;52.50;43.50;;;;;12.42;51.49;101126.56;5059643;28;45295;-51
2022/03/03 07:39:41;;;;;;;;;48.75;40.50;;;;;12.43;51.78;101122.19;5060549;28;45181;-49
2022/03/03 07:42:12;;;;;;;;;53.75;42.75;;;;;12.43;51.69;101127.44;5060961;28;45391;-51
2022/03/03 07:44:38;;;;;;;;;54.75;44.25;;;;;12.43;51.79;101130.94;5059358;28;46700;-52
2022/03/03 07:47:04;;;;;;;;;51.00;40.50;;;;;12.44;51.82;101124.78;5060868;28;45311;-52
2022/03/03 07:49:30;;;;;;;;;55.25;42.50;;;;;12.46;51.94;101130.88;5060795;28;45327;-54
2022/03/03 07:51:58;;;;;;;;;59.25;43.00;;;;;12.48;51.97;101130.88;5060808;28;45490;-53
2022/03/03 07:54:23;;;;;;;;;53.50;42.25;;;;;12.49;52.19;101124.69;5060189;28;46345;-53
2022/03/03 07:56:55;;;;;;;;;48.00;39.00;;;;;12.47;52.08;101130.00;5060769;28;45308;-54
2022/03/03 07:59:31;;;;;;;;;53.00;42.00;;;;;12.50;52.04;101118.53;5059398;28;45460;-51
2022/03/03 08:02:00;;;;;;;;;52.50;43.50;;;;;12.50;52.09;101124.69;5060746;28;45245;-53
2022/03/03 08:04:29;;;;;;;;;51.75;42.75;;;;;12.52;52.14;101132.56;5059866;28;46101;-54
2022/03/03 08:07:07;;;;;;;;;51.00;42.00;;;;;12.53;52.21;101131.66;5059118;28;45351;-52
2022/03/03 08:09:34;;;;;;;;;55.25;41.00;;;;;12.55;52.02;101126.38;5060320;28;45255;-52
2022/03/03 08:12:03;;;;;;;;;53.00;40.50;;;;;12.56;51.97;101128.97;5060277;28;45489;-51
2022/03/03 08:14:30;;;;;;;;;53.25;41.75;;;;;12.55;52.27;101121.09;5060537;28;45401;-53
2022/03/03 08:16:55;;;;;;;;;50.75;40.25;;;;;12.59;52.09;101120.13;5059086;28;45373;-53
2022/03/03 08:19:22;;;;;;;;;51.50;42.75;;;;;12.59;52.21;101123.66;5060554;28;45317;-57
2022/03/03 08:21:49;;;;;;;;;51.00;41.00;;;;;12.61;52.22;101119.22;5060329;28;46094;-51
2022/03/03 08:24:15;;;;;;;;;54.25;43.75;;;;;12.62;52.20;101113.06;5060114;28;45253;-53
2022/03/03 08:26:42;;;;;;;;;56.75;43.50;;;;;12.65;52.15;101120.94;5059024;28;45299;-53
2022/03/03 08:29:09;;;;;;;;;54.50;43.75;;;;;12.67;52.53;101115.63;5060469;28;45362;-54
2022/03/03 08:31:39;;;;;;;;;47.25;38.25;;;;;12.68;52.28;101115.59;5058729;28;45552;-54
2022/03/03 08:34:29;;;;;;;;;51.25;41.25;;;;;12.70;52.36;101117.34;5058840;28;47415;-53
2022/03/03 08:37:00;;;;;;;;;51.25;40.50;;;;;12.71;52.28;101119.09;5049053;28;45288;-53
2022/03/03 08:39:28;;;;;;;;;51.75;42.50;;;;;12.75;52.67;101113.72;5059775;28;45323;-50
2022/03/03 08:41:59;;;;;;;;;51.75;41.25;;;;;12.77;52.65;101113.72;5058546;28;45634;-55
2022/03/03 08:44:33;;;;;;;;;53.50;41.50;;;;;12.78;52.27;101112.78;5059856;28;46317;-53
2022/03/03 08:46:59;;;;;;;;;55.00;43.00;;;;;12.84;52.59;101117.94;5059967;28;45534;-51
2022/03/03 08:49:30;;;;;;;;;52.75;43.50;;;;;12.86;52.67;101110.91;5058598;28;45321;-53
2022/03/03 08:51:57;;;;;;;;;54.25;43.75;;;;;12.90;52.47;101117.84;5058713;28;45791;-54
2022/03/03 08:54:22;;;;;;;;;48.00;39.75;;;;;12.93;52.42;101117.81;5059330;28;46047;-52
2022/03/03 08:56:48;;;;;;;;;55.00;43.75;;;;;12.96;52.31;101117.75;5059786;28;45157;-53
2022/03/03 08:59:14;;;;;;;;;53.25;43.25;;;;;13.00;52.69;101122.09;5059797;28;45176;-53
2022/03/03 09:01:39;;;;;;;;;54.75;44.00;;;;;13.05;52.74;101118.47;5059850;28;45289;-54
2022/03/03 09:04:06;;;;;;;;;54.50;42.75;;;;;13.09;52.73;101120.16;5059562;28;45213;-53
2022/03/03 09:06:32;;;;;;;;;46.00;39.00;;;;;13.12;52.64;101128.88;5059798;28;45265;-54
2022/03/03 09:08:58;;;;;;;;;56.00;45.00;;;;;13.17;52.81;101129.66;5057918;28;45373;-51
2022/03/03 09:11:24;;;;;;;;;48.00;39.75;;;;;13.21;52.58;101135.75;5059413;28;45315;-52
2022/03/03 09:13:50;;;;;;;;;53.75;42.75;;;;;13.26;52.53;101135.69;5058156;28;45373;-54
2022/03/03 09:16:17;;;;;;;;;52.25;42.25;;;;;13.28;52.72;101129.47;5062358;28;45412;-53
2022/03/03 09:18:44;;;;;;;;;53.50;43.50;;;;;13.32;52.54;101123.22;5063167;28;46450;-53
2022/03/03 09:21:10;;;;;;;;;54.50;44.75;;;;;13.32;52.67;101120.59;5063185;28;45260;-54
2022/03/03 09:23:35;;;;;;;;;52.00;42.50;;;;;13.42;53.05;101125.72;5061440;28;45333;-54
2022/03/03 09:26:00;;;;;;;;;49.75;41.25;;;;;13.44;52.73;101126.56;5063066;28;45178;-51
2022/03/03 09:28:26;;;;;;;;;53.00;42.50;;;;;13.48;52.46;101125.59;5063082;28;45244;-54
2022/03/03 09:30:51;;;;;;;;;52.25;40.50;;;;;13.52;52.54;101131.69;5063022;28;45273;-54
2022/03/03 09:33:17;;;;;;;;;46.50;38.75;;;;;13.54;52.41;101124.63;5062794;28;45340;-53
2022/03/03 09:35:42;;;;;;;;;52.50;43.50;;;;;13.58;52.51;101132.41;5066553;28;45438;-54
2022/03/03 09:38:07;;;;;;;;;50.00;40.25;;;;;13.55;52.83;101121.06;5061669;28;45346;-54
2022/03/03 09:40:33;;;;;;;;;53.00;42.25;;;;;13.63;52.55;101132.34;5062535;28;45376;-54
2022/03/03 09:43:01;;;;;;;;;52.25;42.75;;;;;13.67;52.39;101126.06;5062796;28;45865;-54
2022/03/03 09:45:27;;;;;;;;;49.50;42.00;;;;;13.68;52.90;101121.69;5062888;28;45280;-53
2022/03/03 09:47:54;;;;;;;;;54.75;44.00;;;;;13.71;53.17;101121.59;5062787;28;45333;-52
2022/03/03 09:50:20;;;;;;;;;52.50;42.00;;;;;13.73;52.68;101125.09;5062684;28;45344;-53
2022/03/03 09:52:45;;;;;;;;;57.25;43.25;;;;;13.75;52.82;101124.16;5062374;28;45485;-54
2022/03/03 09:55:11;;;;;;;;;53.25;42.00;;;;;13.78;52.78;101125.88;5062504;28;45244;-53
2022/03/03 09:57:37;;;;;;;;;55.25;44.25;;;;;13.78;52.99;101123.22;5061251;28;45509;-54
2022/03/03 10:00:09;;;;;;;;;50.00;40.00;;;;;13.81;52.72;101128.41;5062510;28;45351;-50
2022/03/03 10:03:14;;;;;;;;;50.00;41.50;;;;;13.85;52.67;101123.94;5061092;28;47375;-55
2022/03/03 10:05:47;;;;;;;;;54.00;44.00;;;;;13.87;52.60;101123.00;5039973;28;45277;-57
2022/03/03 10:08:13;;;;;;;;;49.25;41.25;;;;;13.89;53.12;101123.84;5039691;28;45309;-52
2022/03/03 10:10:45;;;;;;;;;50.25;40.00;;;;;13.93;53.00;101125.53;5050265;28;45823;-52
2022/03/03 10:13:14;;;;;;;;;50.25;39.50;;;;;13.95;52.88;101123.72;5061277;28;46434;-54
2022/03/03 10:15:40;;;;;;;;;47.00;37.00;;;;;13.98;53.11;101118.34;5061164;28;45241;-53
2022/03/03 10:18:10;;;;;;;;;45.00;36.25;;;;;14.00;53.10;101117.47;5061390;28;45445;-54
2022/03/03 10:20:58;;;;;;;;;41.25;36.25;;;;;14.04;53.15;101111.22;5061073;28;45323;-53
2022/03/03 10:23:29;;;;;;;;;47.25;37.00;;;;;14.07;52.92;101124.34;5060690;28;46893;-53
2022/03/03 10:25:56;;;;;;;;;45.00;36.00;;;;;14.10;52.83;101121.63;5060477;28;45335;-50
2022/03/03 10:28:27;;;;;;;;;49.00;39.25;;;;;14.14;53.03;101124.16;5061102;28;45342;-51
2022/03/03 10:31:03;;;;;;;;;51.25;39.25;;;;;14.17;52.68;101115.31;5061003;28;45516;-52
2022/03/03 10:33:36;;;;;;;;;49.50;40.75;;;;;14.20;52.80;101112.59;5060728;28;45415;-52
2022/03/03 10:36:04;;;;;;;;;49.00;42.00;;;;;14.25;53.20;101115.13;5064813;28;45303;-52
2022/03/03 10:38:30;;;;;;;;;49.00;40.00;;;;;14.27;52.65;101113.31;5059417;28;45387;-49
2022/03/03 10:40:57;;;;;;;;;47.75;38.75;;;;;14.26;52.70;101109.81;5060716;28;45452;-56
2022/03/03 10:43:23;;;;;;;;;48.00;38.50;;;;;14.29;52.70;101112.38;5059267;28;46301;-50
2022/03/03 10:46:00;;;;;;;;;51.25;41.25;;;;;14.31;52.65;101114.97;5060676;28;45161;-54
2022/03/03 10:48:27;;;;;;;;;51.50;41.00;;;;;14.34;53.17;101111.38;5060734;28;45280;-52
2022/03/03 10:51:00;;;;;;;;;49.00;40.50;;;;;14.35;52.79;101113.13;5060593;28;45442;-51
2022/03/03 10:53:26;;;;;;;;;54.75;43.50;;;;;14.38;53.13;101107.78;5058912;28;45641;-47
2022/03/03 10:56:07;;;;;;;;;48.75;40.00;;;;;14.40;52.91;101113.88;5060331;28;45181;-54
2022/03/03 10:59:04;;;;;;;;;52.25;42.25;;;;;14.43;53.23;101116.47;5060763;28;45286;-54
2022/03/03 11:01:32;;;;;;;;;49.75;39.75;;;;;14.45;52.76;101104.94;5055758;28;45232;-51
2022/03/03 11:03:59;;;;;;;;;48.50;40.25;;;;;14.45;52.68;101112.00;5060331;28;45414;-50
2022/03/03 11:06:29;;;;;;;;;46.50;38.50;;;;;14.46;53.04;101106.69;5060365;28;45299;-53
2022/03/03 11:08:57;;;;;;;;;49.50;39.25;;;;;14.46;52.88;101111.09;4999734;28;1732675;-58